createdAt,value
2022-12-25T00:00:56.659Z,7.53
2022-12-25T00:01:56.587Z,7.57
2022-12-25T00:02:56.767Z,7.53
2022-12-25T00:03:56.800Z,7.49
2022-12-25T00:04:56.585Z,7.48
2022-12-25T00:05:56.543Z,7.48
2022-12-25T00:06:56.649Z,7.48
2022-12-25T00:07:56.568Z,7.48
2022-12-25T00:08:56.513Z,7.46
2022-12-25T00:09:56.483Z,7.45
2022-12-25T00:10:56.491Z,7.45
2022-12-25T00:11:56.512Z,7.45
2022-12-25T00:12:56.459Z,7.45
2022-12-25T00:13:56.438Z,7.43
2022-12-25T00:14:56.520Z,7.40
2022-12-25T00:15:56.505Z,7.39
2022-12-25T00:16:56.442Z,7.37
2022-12-25T00:17:56.439Z,7.35
2022-12-25T00:18:56.481Z,7.34
2022-12-25T00:19:56.404Z,7.34
2022-12-25T00:20:56.412Z,7.31
2022-12-25T00:21:56.401Z,7.30
2022-12-25T00:22:56.434Z,7.30
2022-12-25T00:23:56.346Z,7.30
2022-12-25T00:24:56.312Z,7.25
2022-12-25T00:25:56.783Z,7.25
2022-12-25T00:26:56.388Z,7.27
2022-12-25T00:27:56.333Z,7.25
2022-12-25T00:28:56.301Z,7.25
2022-12-25T00:29:56.283Z,7.21
2022-12-25T00:30:56.391Z,7.21
2022-12-25T00:31:56.350Z,7.20
2022-12-25T00:32:56.262Z,7.17
2022-12-25T00:33:56.243Z,7.15
2022-12-25T00:34:56.250Z,7.17
2022-12-25T00:35:57.719Z,7.12
2022-12-25T00:36:56.236Z,7.13
2022-12-25T00:37:56.240Z,7.13
2022-12-25T00:38:56.178Z,7.12
2022-12-25T00:39:56.164Z,7.12
2022-12-25T00:40:56.192Z,7.10
2022-12-25T00:41:56.195Z,7.13
2022-12-25T00:42:56.175Z,7.13
2022-12-25T00:43:56.127Z,7.12
2022-12-25T00:44:56.134Z,7.10
2022-12-25T00:45:56.226Z,7.10
2022-12-25T00:46:56.153Z,7.12
2022-12-25T00:47:56.141Z,7.12
2022-12-25T00:48:56.567Z,7.12
2022-12-25T00:49:56.089Z,7.10
2022-12-25T00:50:56.097Z,7.09
2022-12-25T00:51:56.055Z,7.12
2022-12-25T00:52:56.085Z,7.07
2022-12-25T00:53:56.013Z,7.06
2022-12-25T00:54:56.021Z,7.05
2022-12-25T00:55:56.057Z,7.02
2022-12-25T00:56:56.024Z,6.99
2022-12-25T00:57:55.993Z,6.99
2022-12-25T00:58:56.033Z,6.99
2022-12-25T00:59:55.956Z,6.98
2022-12-25T01:00:56.024Z,6.95
2022-12-25T01:01:56.046Z,6.95
2022-12-25T01:02:56.049Z,6.97
2022-12-25T01:03:55.941Z,6.94
2022-12-25T01:04:55.919Z,6.92
2022-12-25T01:05:55.984Z,6.91
2022-12-25T01:06:55.907Z,6.92
2022-12-25T01:07:55.943Z,6.89
2022-12-25T01:08:55.902Z,6.88
2022-12-25T01:09:55.876Z,6.91
2022-12-25T01:10:55.887Z,6.89
2022-12-25T01:11:55.819Z,6.88
2022-12-25T01:12:55.836Z,6.89
2022-12-25T01:13:55.822Z,6.92
2022-12-25T01:14:55.795Z,6.91
2022-12-25T01:15:55.867Z,6.91
2022-12-25T01:16:55.884Z,6.89
2022-12-25T01:17:55.819Z,6.88
2022-12-25T01:18:55.789Z,6.87
2022-12-25T01:19:55.739Z,6.85
2022-12-25T01:20:55.783Z,6.84
2022-12-25T01:21:55.749Z,6.81
2022-12-25T01:22:55.771Z,6.81
2022-12-25T01:23:55.764Z,6.77
2022-12-25T01:24:55.711Z,6.77
2022-12-25T01:25:55.755Z,6.79
2022-12-25T01:26:55.662Z,6.76
2022-12-25T01:27:55.715Z,6.74
2022-12-25T01:28:55.712Z,6.77
2022-12-25T01:29:55.642Z,6.79
2022-12-25T01:30:55.675Z,6.77
2022-12-25T01:31:55.708Z,6.77
2022-12-25T01:32:55.638Z,6.74
2022-12-25T01:33:55.695Z,6.74
2022-12-25T01:34:56.440Z,6.76
2022-12-25T01:35:55.589Z,6.74
2022-12-25T01:36:55.652Z,6.74
2022-12-25T01:37:55.614Z,6.71
2022-12-25T01:38:55.663Z,6.73
2022-12-25T01:39:55.569Z,6.71
2022-12-25T01:40:55.533Z,6.69
2022-12-25T01:41:55.534Z,6.69
2022-12-25T01:42:55.543Z,6.67
2022-12-25T01:43:55.541Z,6.67
2022-12-25T01:44:55.504Z,6.67
2022-12-25T01:45:55.534Z,6.67
2022-12-25T01:46:55.500Z,6.66
2022-12-25T01:47:55.474Z,6.64
2022-12-25T01:48:55.457Z,6.64
2022-12-25T01:49:55.516Z,6.64
2022-12-25T01:50:55.434Z,6.62
2022-12-25T01:51:55.457Z,6.62
2022-12-25T01:52:55.395Z,6.62
2022-12-25T01:53:55.511Z,6.64
2022-12-25T01:54:55.416Z,6.61
2022-12-25T01:55:55.381Z,6.58
2022-12-25T01:56:55.395Z,6.58
2022-12-25T01:57:55.367Z,6.55
2022-12-25T01:58:55.382Z,6.55
2022-12-25T01:59:55.358Z,6.55
2022-12-25T02:00:55.412Z,6.51
2022-12-25T02:01:55.524Z,6.49
2022-12-25T02:02:55.507Z,6.49
2022-12-25T02:03:55.337Z,6.46
2022-12-25T02:04:55.308Z,6.46
2022-12-25T02:05:55.289Z,6.41
2022-12-25T02:06:55.297Z,6.40
2022-12-25T02:07:55.274Z,6.34
2022-12-25T02:08:55.249Z,6.36
2022-12-25T02:09:55.248Z,6.36
2022-12-25T02:10:55.241Z,6.34
2022-12-25T02:11:55.242Z,6.34
2022-12-25T02:12:55.210Z,6.33
2022-12-25T02:13:55.231Z,6.30
2022-12-25T02:14:59.663Z,6.31
2022-12-25T02:15:56.202Z,6.28
2022-12-25T02:16:57.652Z,6.31
2022-12-25T02:17:55.278Z,6.30
2022-12-25T02:18:55.230Z,6.30
2022-12-25T02:19:55.244Z,6.30
2022-12-25T02:20:55.117Z,6.28
2022-12-25T02:21:55.125Z,6.28
2022-12-25T02:22:55.127Z,6.28
2022-12-25T02:23:55.097Z,6.28
2022-12-25T02:24:55.091Z,6.25
2022-12-25T02:25:55.073Z,6.25
2022-12-25T02:26:55.054Z,6.21
2022-12-25T02:27:55.070Z,6.22
2022-12-25T02:28:55.042Z,6.21
2022-12-25T02:29:55.080Z,6.18
2022-12-25T02:30:55.097Z,6.19
2022-12-25T02:31:55.086Z,6.18
2022-12-25T02:32:55.055Z,6.17
2022-12-25T02:33:55.045Z,6.14
2022-12-25T02:34:54.990Z,6.11
2022-12-25T02:35:54.992Z,6.09
2022-12-25T02:36:54.967Z,6.09
2022-12-25T02:37:54.963Z,6.08
2022-12-25T02:38:54.922Z,6.04
2022-12-25T02:39:54.935Z,6.06
2022-12-25T02:40:54.927Z,6.04
2022-12-25T02:41:54.940Z,6.04
2022-12-25T02:42:54.922Z,6.01
2022-12-25T02:43:54.869Z,5.99
2022-12-25T02:44:54.889Z,5.97
2022-12-25T02:45:54.942Z,5.96
2022-12-25T02:46:54.871Z,5.90
2022-12-25T02:47:54.860Z,5.86
2022-12-25T02:48:54.841Z,5.89
2022-12-25T02:49:54.805Z,5.86
2022-12-25T02:50:54.807Z,5.90
2022-12-25T02:51:54.805Z,5.90
2022-12-25T02:52:54.826Z,5.91
2022-12-25T02:53:54.777Z,5.91
2022-12-25T02:54:54.791Z,5.91
2022-12-25T02:55:54.756Z,5.90
2022-12-25T02:56:54.785Z,5.91
2022-12-25T02:57:54.757Z,5.91
2022-12-25T02:58:54.764Z,5.91
2022-12-25T02:59:54.736Z,5.91
2022-12-25T03:00:54.715Z,5.91
2022-12-25T03:01:54.791Z,5.91
2022-12-25T03:02:54.722Z,5.91
2022-12-25T03:03:54.708Z,5.90
2022-12-25T03:04:54.670Z,5.85
2022-12-25T03:05:54.671Z,5.89
2022-12-25T03:06:54.683Z,5.89
2022-12-25T03:07:54.675Z,5.89
2022-12-25T03:08:54.619Z,5.89
2022-12-25T03:09:54.653Z,5.90
2022-12-25T03:10:54.610Z,5.89
2022-12-25T03:11:54.606Z,5.86
2022-12-25T03:12:54.651Z,5.86
2022-12-25T03:13:54.586Z,5.85
2022-12-25T03:14:54.588Z,5.82
2022-12-25T03:15:54.639Z,5.85
2022-12-25T03:16:54.580Z,5.83
2022-12-25T03:17:54.555Z,5.81
2022-12-25T03:18:54.500Z,5.79
2022-12-25T03:19:54.548Z,5.79
2022-12-25T03:20:54.490Z,5.75
2022-12-25T03:21:54.501Z,5.74
2022-12-25T03:22:54.509Z,5.74
2022-12-25T03:23:54.501Z,5.74
2022-12-25T03:24:54.461Z,5.71
2022-12-25T03:25:54.426Z,5.71
2022-12-25T03:26:54.489Z,5.68
2022-12-25T03:27:54.425Z,5.65
2022-12-25T03:28:54.421Z,5.64
2022-12-25T03:29:54.412Z,5.64
2022-12-25T03:30:54.444Z,5.61
2022-12-25T03:31:54.351Z,5.61
2022-12-25T03:32:54.384Z,5.60
2022-12-25T03:33:54.372Z,5.58
2022-12-25T03:34:54.352Z,5.57
2022-12-25T03:35:54.366Z,5.57
2022-12-25T03:36:54.348Z,5.58
2022-12-25T03:37:54.323Z,5.58
2022-12-25T03:38:54.310Z,5.56
2022-12-25T03:39:54.383Z,5.54
2022-12-25T03:40:54.329Z,5.53
2022-12-25T03:41:54.265Z,5.51
2022-12-25T03:42:54.298Z,5.49
2022-12-25T03:43:54.235Z,5.49
2022-12-25T03:44:54.272Z,5.46
2022-12-25T03:45:54.356Z,5.48
2022-12-25T03:46:54.240Z,5.46
2022-12-25T03:47:54.279Z,5.46
2022-12-25T03:48:54.191Z,5.45
2022-12-25T03:49:54.211Z,5.45
2022-12-25T03:50:54.236Z,5.45
2022-12-25T03:51:54.208Z,5.45
2022-12-25T03:52:54.178Z,5.43
2022-12-25T03:53:54.191Z,5.42
2022-12-25T03:54:54.171Z,5.42
2022-12-25T03:55:54.108Z,5.42
2022-12-25T03:56:54.107Z,5.40
2022-12-25T03:57:54.118Z,5.42
2022-12-25T03:58:54.092Z,5.40
2022-12-25T03:59:54.081Z,5.39
2022-12-25T04:00:54.090Z,5.36
2022-12-25T04:01:54.147Z,5.36
2022-12-25T04:02:54.140Z,5.35
2022-12-25T04:03:54.086Z,5.35
2022-12-25T04:04:54.112Z,5.35
2022-12-25T04:05:54.015Z,5.33
2022-12-25T04:06:54.010Z,5.33
2022-12-25T04:07:54.053Z,5.31
2022-12-25T04:08:53.990Z,5.31
2022-12-25T04:09:53.991Z,5.31
2022-12-25T04:10:53.986Z,5.31
2022-12-25T04:11:58.752Z,5.33
2022-12-25T04:12:55.005Z,5.35
2022-12-25T04:13:53.963Z,5.35
2022-12-25T04:14:53.932Z,5.33
2022-12-25T04:15:53.978Z,5.33
2022-12-25T04:16:53.969Z,5.35
2022-12-25T04:17:53.937Z,5.31
2022-12-25T04:18:53.918Z,5.31
2022-12-25T04:19:53.880Z,5.30
2022-12-25T04:20:53.892Z,5.28
2022-12-25T04:21:53.911Z,5.30
2022-12-25T04:22:53.859Z,5.27
2022-12-25T04:23:53.841Z,5.30
2022-12-25T04:24:53.815Z,5.25
2022-12-25T04:25:53.833Z,5.25
2022-12-25T04:26:53.811Z,5.25
2022-12-25T04:27:53.794Z,5.24
2022-12-25T04:28:53.772Z,5.22
2022-12-25T04:29:53.787Z,5.18
2022-12-25T04:30:53.804Z,5.18
2022-12-25T04:31:53.812Z,5.17
2022-12-25T04:32:53.736Z,5.18
2022-12-25T04:33:53.786Z,5.15
2022-12-25T04:34:53.705Z,5.17
2022-12-25T04:35:53.738Z,5.17
2022-12-25T04:36:53.736Z,5.17
2022-12-25T04:37:53.687Z,5.17
2022-12-25T04:38:53.719Z,5.17
2022-12-25T04:39:53.663Z,5.18
2022-12-25T04:40:53.669Z,5.18
2022-12-25T04:41:53.664Z,5.15
2022-12-25T04:42:53.657Z,5.15
2022-12-25T04:43:53.687Z,5.17
2022-12-25T04:44:53.609Z,5.13
2022-12-25T04:45:53.623Z,5.10
2022-12-25T04:46:53.673Z,5.09
2022-12-25T04:47:53.644Z,5.10
2022-12-25T04:48:53.680Z,5.10
2022-12-25T04:49:53.581Z,5.07
2022-12-25T04:50:53.547Z,5.06
2022-12-25T04:51:53.548Z,5.09
2022-12-25T04:52:53.610Z,5.10
2022-12-25T04:53:53.535Z,5.10
2022-12-25T04:54:53.531Z,5.13
2022-12-25T04:55:53.522Z,5.12
2022-12-25T04:56:53.513Z,5.12
2022-12-25T04:57:53.505Z,5.13
2022-12-25T04:58:53.491Z,5.15
2022-12-25T04:59:53.451Z,5.15
2022-12-25T05:00:53.462Z,5.13
2022-12-25T05:01:53.708Z,5.13
2022-12-25T05:02:53.549Z,5.12
2022-12-25T05:03:53.493Z,5.13
2022-12-25T05:04:53.412Z,5.12
2022-12-25T05:05:53.452Z,5.09
2022-12-25T05:06:53.409Z,5.09
2022-12-25T05:07:53.389Z,5.06
2022-12-25T05:08:53.421Z,5.04
2022-12-25T05:09:53.370Z,5.02
2022-12-25T05:10:53.407Z,5.03
2022-12-25T05:11:53.393Z,5.00
2022-12-25T05:12:53.376Z,5.00
2022-12-25T05:13:53.393Z,4.97
2022-12-25T05:14:53.369Z,4.96
2022-12-25T05:15:53.318Z,4.96
2022-12-25T05:16:53.290Z,4.94
2022-12-25T05:17:53.348Z,4.92
2022-12-25T05:18:53.273Z,4.89
2022-12-25T05:19:53.292Z,4.92
2022-12-25T05:20:53.330Z,4.92
2022-12-25T05:21:53.414Z,4.89
2022-12-25T05:22:53.247Z,4.89
2022-12-25T05:23:53.319Z,4.86
2022-12-25T05:24:53.191Z,4.89
2022-12-25T05:25:53.238Z,4.86
2022-12-25T05:26:53.476Z,4.86
2022-12-25T05:27:54.144Z,4.85
2022-12-25T05:28:53.342Z,4.85
2022-12-25T05:29:53.211Z,4.82
2022-12-25T05:30:53.196Z,4.78
2022-12-25T05:31:53.167Z,4.77
2022-12-25T05:32:53.174Z,4.73
2022-12-25T05:33:53.144Z,4.70
2022-12-25T05:34:53.164Z,4.69
2022-12-25T05:35:53.091Z,4.69
2022-12-25T05:36:53.089Z,4.69
2022-12-25T05:37:53.117Z,4.67
2022-12-25T05:38:53.083Z,4.67
2022-12-25T05:39:53.048Z,4.67
2022-12-25T05:40:53.034Z,4.66
2022-12-25T05:41:53.120Z,4.65
2022-12-25T05:42:53.026Z,4.65
2022-12-25T05:43:52.996Z,4.63
2022-12-25T05:44:53.040Z,4.60
2022-12-25T05:45:52.979Z,4.59
2022-12-25T05:46:53.106Z,4.55
2022-12-25T05:47:52.956Z,4.55
2022-12-25T05:48:52.982Z,4.54
2022-12-25T05:49:52.938Z,4.54
2022-12-25T05:50:53.111Z,4.51
2022-12-25T05:51:52.928Z,4.54
2022-12-25T05:52:52.927Z,4.55
2022-12-25T05:53:52.926Z,4.58
2022-12-25T05:54:52.905Z,4.55
2022-12-25T05:55:52.868Z,4.58
2022-12-25T05:56:52.872Z,4.55
2022-12-25T05:57:52.889Z,4.58
2022-12-25T05:58:52.847Z,4.58
2022-12-25T05:59:52.889Z,4.55
2022-12-25T06:00:52.868Z,4.54
2022-12-25T06:01:52.896Z,4.54
2022-12-25T06:02:52.942Z,4.54
2022-12-25T06:03:52.859Z,4.55
2022-12-25T06:04:52.792Z,4.52
2022-12-25T06:05:52.801Z,4.44
2022-12-25T06:06:52.752Z,4.41
2022-12-25T06:07:52.754Z,4.37
2022-12-25T06:08:52.769Z,4.34
2022-12-25T06:09:52.729Z,4.32
2022-12-25T06:10:52.716Z,4.27
2022-12-25T06:11:52.714Z,4.26
2022-12-25T06:12:52.731Z,4.24
2022-12-25T06:13:52.759Z,4.22
2022-12-25T06:14:52.740Z,4.20
2022-12-25T06:15:52.736Z,4.20
2022-12-25T06:16:52.691Z,4.22
2022-12-25T06:17:52.634Z,4.20
2022-12-25T06:18:52.714Z,4.20
2022-12-25T06:19:52.641Z,4.24
2022-12-25T06:20:52.644Z,4.24
2022-12-25T06:21:52.541Z,4.26
2022-12-25T06:22:52.599Z,4.30
2022-12-25T06:23:52.600Z,4.32
2022-12-25T06:24:52.569Z,4.33
2022-12-25T06:25:52.550Z,4.34
2022-12-25T06:26:52.531Z,4.32
2022-12-25T06:27:52.530Z,4.32
2022-12-25T06:28:52.599Z,4.30
2022-12-25T06:29:52.566Z,4.30
2022-12-25T06:30:52.469Z,4.32
2022-12-25T06:31:52.508Z,4.32
2022-12-25T06:32:52.447Z,4.33
2022-12-25T06:33:52.491Z,4.34
2022-12-25T06:34:52.480Z,4.37
2022-12-25T06:35:52.459Z,4.34
2022-12-25T06:36:52.509Z,4.36
2022-12-25T06:37:52.488Z,4.34
2022-12-25T06:38:52.389Z,4.34
2022-12-25T06:39:52.459Z,4.34
2022-12-25T06:40:52.420Z,4.30
2022-12-25T06:41:52.368Z,4.26
2022-12-25T06:42:52.367Z,4.26
2022-12-25T06:43:52.315Z,4.20
2022-12-25T06:44:52.359Z,4.11
2022-12-25T06:45:52.395Z,4.02
2022-12-25T06:46:52.355Z,4.04
2022-12-25T06:47:52.306Z,4.09
2022-12-25T06:48:52.298Z,4.14
2022-12-25T06:49:52.292Z,4.11
2022-12-25T06:50:52.265Z,4.09
2022-12-25T06:51:52.259Z,4.11
2022-12-25T06:52:52.237Z,4.14
2022-12-25T06:53:52.207Z,4.14
2022-12-25T06:54:52.195Z,4.14
2022-12-25T06:55:52.191Z,4.16
2022-12-25T06:56:52.224Z,4.16
2022-12-25T06:57:52.219Z,4.14
2022-12-25T06:58:52.154Z,4.14
2022-12-25T06:59:55.382Z,4.15
2022-12-25T07:00:52.165Z,4.12
2022-12-25T07:01:52.283Z,4.06
2022-12-25T07:02:52.307Z,4.06
2022-12-25T07:03:52.145Z,4.08
2022-12-25T07:04:52.166Z,4.11
2022-12-25T07:05:52.125Z,4.11
2022-12-25T07:06:52.076Z,4.09
2022-12-25T07:07:52.067Z,4.08
2022-12-25T07:08:52.094Z,4.06
2022-12-25T07:09:52.066Z,4.09
2022-12-25T07:10:52.054Z,4.09
2022-12-25T07:11:52.035Z,4.12
2022-12-25T07:12:52.064Z,4.14
2022-12-25T07:13:52.033Z,4.15
2022-12-25T07:14:52.023Z,4.16
2022-12-25T07:15:51.984Z,4.16
2022-12-25T07:16:52.118Z,4.16
2022-12-25T07:17:51.949Z,4.14
2022-12-25T07:18:51.955Z,4.14
2022-12-25T07:19:51.931Z,4.08
2022-12-25T07:20:51.947Z,4.04
2022-12-25T07:21:51.906Z,4.04
2022-12-25T07:22:51.952Z,4.00
2022-12-25T07:23:51.935Z,3.96
2022-12-25T07:24:51.907Z,3.91
2022-12-25T07:25:51.869Z,3.91
2022-12-25T07:26:51.973Z,3.90
2022-12-25T07:27:51.868Z,3.93
2022-12-25T07:28:51.856Z,3.96
2022-12-25T07:29:51.903Z,3.97
2022-12-25T07:30:51.882Z,4.00
2022-12-25T07:31:51.847Z,4.02
2022-12-25T07:32:51.856Z,4.04
2022-12-25T07:33:51.829Z,4.04
2022-12-25T07:34:51.816Z,4.02
2022-12-25T07:35:51.864Z,3.96
2022-12-25T07:36:51.749Z,3.93
2022-12-25T07:37:51.763Z,3.91
2022-12-25T07:38:51.756Z,3.91
2022-12-25T07:39:51.800Z,3.93
2022-12-25T07:40:51.707Z,3.94
2022-12-25T07:41:51.713Z,4.00
2022-12-25T07:42:51.714Z,4.00
2022-12-25T07:43:51.704Z,4.05
2022-12-25T07:44:51.709Z,4.05
2022-12-25T07:45:51.709Z,4.09
2022-12-25T07:46:51.649Z,4.09
2022-12-25T07:47:55.005Z,4.15
2022-12-25T07:48:51.621Z,4.20
2022-12-25T07:49:51.673Z,4.20
2022-12-25T07:50:51.628Z,4.22
2022-12-25T07:51:51.622Z,4.26
2022-12-25T07:52:51.604Z,4.29
2022-12-25T07:53:51.612Z,4.30
2022-12-25T07:54:51.603Z,4.26
2022-12-25T07:55:51.604Z,4.32
2022-12-25T07:56:51.567Z,4.27
2022-12-25T07:57:51.534Z,4.32
2022-12-25T07:58:51.541Z,4.34
2022-12-25T07:59:51.535Z,4.24
2022-12-25T08:00:51.641Z,4.24
2022-12-25T08:01:51.686Z,4.22
2022-12-25T08:02:51.668Z,4.23
2022-12-25T08:03:51.689Z,4.23
2022-12-25T08:04:51.557Z,4.15
2022-12-25T08:05:51.490Z,4.20
2022-12-25T08:06:51.459Z,4.22
2022-12-25T08:07:57.073Z,4.26
2022-12-25T08:08:52.431Z,4.20
2022-12-25T08:09:51.440Z,4.26
2022-12-25T08:10:51.415Z,4.29
2022-12-25T08:11:51.405Z,4.29
2022-12-25T08:12:51.373Z,4.32
2022-12-25T08:13:51.391Z,4.36
2022-12-25T08:14:51.434Z,4.37
2022-12-25T08:15:51.348Z,4.32
2022-12-25T08:16:51.422Z,4.29
2022-12-25T08:17:51.317Z,4.24
2022-12-25T08:18:51.360Z,4.30
2022-12-25T08:19:51.357Z,4.33
2022-12-25T08:20:51.409Z,4.30
2022-12-25T08:21:51.303Z,4.30
2022-12-25T08:22:51.309Z,4.27
2022-12-25T08:23:51.281Z,4.23
2022-12-25T08:24:51.281Z,4.18
2022-12-25T08:25:51.262Z,4.20
2022-12-25T08:26:51.292Z,4.27
2022-12-25T08:27:51.242Z,4.29
2022-12-25T08:28:51.254Z,4.29
2022-12-25T08:29:51.300Z,4.30
2022-12-25T08:30:51.248Z,4.34
2022-12-25T08:31:51.208Z,4.37
2022-12-25T08:32:51.159Z,4.42
2022-12-25T08:33:51.172Z,4.44
2022-12-25T08:34:51.192Z,4.37
2022-12-25T08:35:51.221Z,4.30
2022-12-25T08:36:51.183Z,4.15
2022-12-25T08:37:51.120Z,4.04
2022-12-25T08:38:51.573Z,3.98
2022-12-25T08:39:51.116Z,4.00
2022-12-25T08:40:51.087Z,4.00
2022-12-25T08:41:51.090Z,4.08
2022-12-25T08:42:51.085Z,4.16
2022-12-25T08:43:51.105Z,4.22
2022-12-25T08:44:51.108Z,4.15
2022-12-25T08:45:51.096Z,4.12
2022-12-25T08:46:51.016Z,4.12
2022-12-25T08:47:51.077Z,4.15
2022-12-25T08:48:51.017Z,4.22
2022-12-25T08:49:50.997Z,4.22
2022-12-25T08:50:50.989Z,4.16
2022-12-25T08:51:50.994Z,4.20
2022-12-25T08:52:50.973Z,4.24
2022-12-25T08:53:51.024Z,4.33
2022-12-25T08:54:50.992Z,4.37
2022-12-25T08:55:50.941Z,4.48
2022-12-25T08:56:50.950Z,4.54
2022-12-25T08:57:51.002Z,4.54
2022-12-25T08:58:50.946Z,4.51
2022-12-25T08:59:50.909Z,4.40
2022-12-25T09:00:50.881Z,4.40
2022-12-25T09:01:50.971Z,4.34
2022-12-25T09:02:50.963Z,4.36
2022-12-25T09:03:50.965Z,4.41
2022-12-25T09:04:50.879Z,4.48
2022-12-25T09:05:50.840Z,4.52
2022-12-25T09:06:50.828Z,4.55
2022-12-25T09:07:50.820Z,4.59
2022-12-25T09:08:50.805Z,4.63
2022-12-25T09:09:50.775Z,4.65
2022-12-25T09:10:50.807Z,4.72
2022-12-25T09:11:50.786Z,4.73
2022-12-25T09:12:50.740Z,4.77
2022-12-25T09:13:50.787Z,4.80
2022-12-25T09:14:50.726Z,4.67
2022-12-25T09:15:50.726Z,4.62
2022-12-25T09:16:50.763Z,4.52
2022-12-25T09:17:50.720Z,4.48
2022-12-25T09:18:50.759Z,4.47
2022-12-25T09:19:50.699Z,4.44
2022-12-25T09:20:50.676Z,4.36
2022-12-25T09:21:50.672Z,4.32
2022-12-25T09:22:50.698Z,4.24
2022-12-25T09:23:50.630Z,4.16
2022-12-25T09:24:50.631Z,4.05
2022-12-25T09:25:50.702Z,4.00
2022-12-25T09:26:50.634Z,4.06
2022-12-25T09:27:50.617Z,4.14
2022-12-25T09:28:52.649Z,4.20
2022-12-25T09:29:50.590Z,4.18
2022-12-25T09:30:50.646Z,4.23
2022-12-25T09:31:50.577Z,4.24
2022-12-25T09:32:50.533Z,4.22
2022-12-25T09:33:50.536Z,4.18
2022-12-25T09:34:50.546Z,4.11
2022-12-25T09:35:50.527Z,4.15
2022-12-25T09:36:50.483Z,4.22
2022-12-25T09:37:50.490Z,4.23
2022-12-25T09:38:50.537Z,4.29
2022-12-25T09:39:50.503Z,4.24
2022-12-25T09:40:50.480Z,4.18
2022-12-25T09:41:50.454Z,4.15
2022-12-25T09:42:50.444Z,4.12
2022-12-25T09:43:50.424Z,4.11
2022-12-25T09:44:50.420Z,4.11
2022-12-25T09:45:50.464Z,4.09
2022-12-25T09:46:50.640Z,4.14
2022-12-25T09:47:50.445Z,4.09
2022-12-25T09:48:50.385Z,4.08
2022-12-25T09:49:50.421Z,4.14
2022-12-25T09:50:50.362Z,4.11
2022-12-25T09:51:50.440Z,4.14
2022-12-25T09:52:50.341Z,4.11
2022-12-25T09:53:50.335Z,4.05
2022-12-25T09:54:50.305Z,4.05
2022-12-25T09:55:50.352Z,4.12
2022-12-25T09:56:50.294Z,4.20
2022-12-25T09:57:50.322Z,4.24
2022-12-25T09:58:50.299Z,4.26
2022-12-25T09:59:50.303Z,4.27
2022-12-25T10:00:50.282Z,4.24
2022-12-25T10:01:50.351Z,4.22
2022-12-25T10:02:50.400Z,4.22
2022-12-25T10:03:50.248Z,4.29
2022-12-25T10:04:50.205Z,4.40
2022-12-25T10:05:50.282Z,4.44
2022-12-25T10:06:50.171Z,4.45
2022-12-25T10:07:50.282Z,4.51
2022-12-25T10:08:50.220Z,4.55
2022-12-25T10:09:50.249Z,4.52
2022-12-25T10:10:50.123Z,4.47
2022-12-25T10:11:50.361Z,4.54
2022-12-25T10:12:50.111Z,4.65
2022-12-25T10:13:50.251Z,4.73
2022-12-25T10:14:50.110Z,4.78
2022-12-25T10:15:50.432Z,4.80
2022-12-25T10:16:50.117Z,4.85
2022-12-25T10:17:50.311Z,4.92
2022-12-25T10:18:50.101Z,4.99
2022-12-25T10:19:50.260Z,5.06
2022-12-25T10:20:50.054Z,5.12
2022-12-25T10:21:50.236Z,5.17
2022-12-25T10:22:50.000Z,5.18
2022-12-25T10:23:50.308Z,5.20
2022-12-25T10:24:50.010Z,5.18
2022-12-25T10:25:50.406Z,5.20
2022-12-25T10:26:49.977Z,5.18
2022-12-25T10:27:50.306Z,5.15
2022-12-25T10:28:49.958Z,5.09
2022-12-25T10:29:49.951Z,4.96
2022-12-25T10:30:49.982Z,4.91
2022-12-25T10:31:49.984Z,4.89
2022-12-25T10:32:49.922Z,4.89
2022-12-25T10:33:49.934Z,4.85
2022-12-25T10:34:49.893Z,4.69
2022-12-25T10:35:49.887Z,4.51
2022-12-25T10:36:49.868Z,4.36
2022-12-25T10:37:49.879Z,4.32
2022-12-25T10:38:50.591Z,4.23
2022-12-25T10:39:49.839Z,4.15
2022-12-25T10:40:49.827Z,4.16
2022-12-25T10:41:49.953Z,4.18
2022-12-25T10:42:49.819Z,4.18
2022-12-25T10:43:49.782Z,4.26
2022-12-25T10:44:49.788Z,4.27
2022-12-25T10:45:49.780Z,4.29
2022-12-25T10:46:49.871Z,4.32
2022-12-25T10:47:54.959Z,4.42
2022-12-25T10:48:50.782Z,4.47
2022-12-25T10:49:49.916Z,4.54
2022-12-25T10:50:49.738Z,4.67
2022-12-25T10:51:49.736Z,4.78
2022-12-25T10:52:49.702Z,4.82
2022-12-25T10:53:49.713Z,4.82
2022-12-25T10:54:49.706Z,4.84
2022-12-25T10:55:49.697Z,4.80
2022-12-25T10:56:49.725Z,4.77
2022-12-25T10:57:49.665Z,4.84
2022-12-25T10:58:49.633Z,4.84
2022-12-25T10:59:49.660Z,4.80
2022-12-25T11:00:49.622Z,4.80
2022-12-25T11:01:54.908Z,4.69
2022-12-25T11:02:50.811Z,4.60
2022-12-25T11:03:49.704Z,4.63
2022-12-25T11:04:49.565Z,4.66
2022-12-25T11:05:49.586Z,4.66
2022-12-25T11:06:49.585Z,4.72
2022-12-25T11:07:49.561Z,4.67
2022-12-25T11:08:49.516Z,4.77
2022-12-25T11:09:49.507Z,4.88
2022-12-25T11:10:49.510Z,4.97
2022-12-25T11:11:49.565Z,5.06
2022-12-25T11:12:49.524Z,5.13
2022-12-25T11:13:49.580Z,5.22
2022-12-25T11:14:49.476Z,5.28
2022-12-25T11:15:49.579Z,5.35
2022-12-25T11:16:49.466Z,5.40
2022-12-25T11:17:49.431Z,5.48
2022-12-25T11:18:49.506Z,5.53
2022-12-25T11:19:49.420Z,5.48
2022-12-25T11:20:49.517Z,5.46
2022-12-25T11:21:49.402Z,5.49
2022-12-25T11:22:49.406Z,5.51
2022-12-25T11:23:49.379Z,5.45
2022-12-25T11:24:49.409Z,5.43
2022-12-25T11:25:49.396Z,5.43
2022-12-25T11:26:49.327Z,5.43
2022-12-25T11:27:53.434Z,5.33
2022-12-25T11:28:49.358Z,5.31
2022-12-25T11:29:49.307Z,5.33
2022-12-25T11:30:49.336Z,5.31
2022-12-25T11:31:49.391Z,5.31
2022-12-25T11:32:49.291Z,5.38
2022-12-25T11:33:49.285Z,5.40
2022-12-25T11:34:49.259Z,5.46
2022-12-25T11:35:49.241Z,5.45
2022-12-25T11:36:49.285Z,5.48
2022-12-25T11:37:49.223Z,5.54
2022-12-25T11:38:49.257Z,5.60
2022-12-25T11:39:49.236Z,5.64
2022-12-25T11:40:49.199Z,5.72
2022-12-25T11:41:49.209Z,5.72
2022-12-25T11:42:49.169Z,5.65
2022-12-25T11:43:49.193Z,5.68
2022-12-25T11:44:49.158Z,5.64
2022-12-25T11:45:49.134Z,5.63
2022-12-25T11:46:49.241Z,5.57
2022-12-25T11:47:49.138Z,5.58
2022-12-25T11:48:49.181Z,5.51
2022-12-25T11:49:50.381Z,5.46
2022-12-25T11:50:49.094Z,5.35
2022-12-25T11:51:49.116Z,5.27
2022-12-25T11:52:49.100Z,5.27
2022-12-25T11:53:49.119Z,5.27
2022-12-25T11:54:49.068Z,5.25
2022-12-25T11:55:49.022Z,5.25
2022-12-25T11:56:49.096Z,5.27
2022-12-25T11:57:49.001Z,5.24
2022-12-25T11:58:49.044Z,5.24
2022-12-25T11:59:48.997Z,5.20
2022-12-25T12:00:48.982Z,5.15
2022-12-25T12:01:49.096Z,5.15
2022-12-25T12:02:49.095Z,5.17
2022-12-25T12:03:49.129Z,5.18
2022-12-25T12:04:48.925Z,5.22
2022-12-25T12:05:48.956Z,5.22
2022-12-25T12:06:48.964Z,5.27
2022-12-25T12:07:48.923Z,5.33
2022-12-25T12:08:48.948Z,5.30
2022-12-25T12:09:48.899Z,5.28
2022-12-25T12:10:48.915Z,5.28
2022-12-25T12:11:48.883Z,5.25
2022-12-25T12:12:49.338Z,5.30
2022-12-25T12:13:48.866Z,5.30
2022-12-25T12:14:48.986Z,5.35
2022-12-25T12:15:48.842Z,5.39
2022-12-25T12:16:48.885Z,5.46
2022-12-25T12:17:48.841Z,5.53
2022-12-25T12:18:50.786Z,5.58
2022-12-25T12:19:48.823Z,5.63
2022-12-25T12:20:48.804Z,5.68
2022-12-25T12:21:48.885Z,5.74
2022-12-25T12:22:48.771Z,5.78
2022-12-25T12:23:48.777Z,5.82
2022-12-25T12:24:48.794Z,5.86
2022-12-25T12:25:48.768Z,5.85
2022-12-25T12:26:48.708Z,5.86
2022-12-25T12:27:48.740Z,5.91
2022-12-25T12:28:48.738Z,5.96
2022-12-25T12:29:48.719Z,6.01
2022-12-25T12:30:48.669Z,6.04
2022-12-25T12:31:48.782Z,6.08
2022-12-25T12:32:48.673Z,6.11
2022-12-25T12:33:48.719Z,6.14
2022-12-25T12:34:48.621Z,6.17
2022-12-25T12:35:48.650Z,6.18
2022-12-25T12:36:48.611Z,6.19
2022-12-25T12:37:48.657Z,6.15
2022-12-25T12:38:48.600Z,6.12
2022-12-25T12:39:48.620Z,6.09
2022-12-25T12:40:48.564Z,6.03
2022-12-25T12:41:48.582Z,5.99
2022-12-25T12:42:48.557Z,5.99
2022-12-25T12:43:48.556Z,5.93
2022-12-25T12:44:48.537Z,5.90
2022-12-25T12:45:48.570Z,5.83
2022-12-25T12:46:48.524Z,5.82
2022-12-25T12:47:48.529Z,5.82
2022-12-25T12:48:48.483Z,5.81
2022-12-25T12:49:48.483Z,5.82
2022-12-25T12:50:48.479Z,5.89
2022-12-25T12:51:48.937Z,5.91
2022-12-25T12:52:48.439Z,5.96
2022-12-25T12:53:48.472Z,6.00
2022-12-25T12:54:48.416Z,6.03
2022-12-25T12:55:48.434Z,6.03
2022-12-25T12:56:48.407Z,6.06
2022-12-25T12:57:48.409Z,6.04
2022-12-25T12:58:48.433Z,6.04
2022-12-25T12:59:48.384Z,6.03
2022-12-25T13:00:48.457Z,6.03
2022-12-25T13:01:48.522Z,6.04
2022-12-25T13:02:48.506Z,6.09
2022-12-25T13:03:48.338Z,6.08
2022-12-25T13:04:48.295Z,6.04
2022-12-25T13:05:48.311Z,6.01
2022-12-25T13:06:48.348Z,6.04
2022-12-25T13:07:48.284Z,6.04
2022-12-25T13:08:48.286Z,6.08
2022-12-25T13:09:48.304Z,6.11
2022-12-25T13:10:48.260Z,6.14
2022-12-25T13:11:48.270Z,6.18
2022-12-25T13:12:48.228Z,6.18
2022-12-25T13:13:48.226Z,6.18
2022-12-25T13:14:48.203Z,6.15
2022-12-25T13:15:48.261Z,6.17
2022-12-25T13:16:48.257Z,6.14
2022-12-25T13:17:48.170Z,6.14
2022-12-25T13:18:48.180Z,6.15